Addicks, Texas
Current Conditions -  °F | °C
As of 5:53 PM on Saturday 22 Nov 2014 (Local Time) from KSGR Reporting Station
Light Rain Light Rain  
Wind Chill: 68°   Ceiling: 6000
Heat Index: 68°   Visibility: 5mi
Dew Point: 65°   Wind: 9mph
Humidity: 90%   Direction: 130°SE
Pressure: 29.81"   Gusts: NA
Location:  29.7757°N, 95.6037°W
Report Text: KSGR 222353Z 13008KT 5SM -RA BR FEW032 FEW047 OVC060 20/18 A2981 RMK AO2 LTG DSNT NE RAE28B33 TSB11E26 SLP094 P0006 60010 T02000183 10200 20194 58012
Loading
Personal Weather Stations






























Interactive Weather Map New forecast layout! Learn more

10-Day Weather Forecast

Advertisements
Track Severe Weather on mobile